sensor_id;sensor_type;location;lat;lon;timestamp;P1;durP1;ratioP1;P2;durP2;ratioP2
46717;SDS011;32448;44.960;-0.698;2023-11-19T00:00:19;7.72;;;2.70;;
46717;SDS011;32448;44.960;-0.698;2023-11-19T00:02:47;4.00;;;2.80;;
46717;SDS011;32448;44.960;-0.698;2023-11-19T00:05:14;6.38;;;2.80;;
46717;SDS011;32448;44.960;-0.698;2023-11-19T00:07:42;6.07;;;2.88;;
46717;SDS011;32448;44.960;-0.698;2023-11-19T00:10:10;4.57;;;2.80;;
46717;SDS011;32448;44.960;-0.698;2023-11-19T00:12:41;10.57;;;3.05;;
46717;SDS011;32448;44.960;-0.698;2023-11-19T00:15:15;4.55;;;3.00;;
46717;SDS011;32448;44.960;-0.698;2023-11-19T00:17:46;6.28;;;3.30;;
46717;SDS011;32448;44.960;-0.698;2023-11-19T00:20:16;7.85;;;4.00;;
46717;SDS011;32448;44.960;-0.698;2023-11-19T00:22:46;9.85;;;4.68;;
46717;SDS011;32448;44.960;-0.698;2023-11-19T00:25:17;8.20;;;4.93;;
46717;SDS011;32448;44.960;-0.698;2023-11-19T00:27:45;8.27;;;4.78;;
46717;SDS011;32448;44.960;-0.698;2023-11-19T00:30:12;8.32;;;4.55;;
46717;SDS011;32448;44.960;-0.698;2023-11-19T00:32:41;8.63;;;4.50;;
46717;SDS011;32448;44.960;-0.698;2023-11-19T00:35:08;8.30;;;4.45;;
46717;SDS011;32448;44.960;-0.698;2023-11-19T00:37:36;10.00;;;4.05;;
46717;SDS011;32448;44.960;-0.698;2023-11-19T00:40:03;6.82;;;3.72;;
46717;SDS011;32448;44.960;-0.698;2023-11-19T00:42:32;4.80;;;3.40;;
46717;SDS011;32448;44.960;-0.698;2023-11-19T00:44:59;11.23;;;3.67;;
46717;SDS011;32448;44.960;-0.698;2023-11-19T00:47:28;7.05;;;3.80;;
46717;SDS011;32448;44.960;-0.698;2023-11-19T00:49:55;7.82;;;3.92;;
46717;SDS011;32448;44.960;-0.698;2023-11-19T00:52:21;6.68;;;3.78;;
46717;SDS011;32448;44.960;-0.698;2023-11-19T00:54:48;5.22;;;3.70;;
46717;SDS011;32448;44.960;-0.698;2023-11-19T00:57:16;5.78;;;3.58;;
46717;SDS011;32448;44.960;-0.698;2023-11-19T00:59:43;8.43;;;3.78;;
46717;SDS011;32448;44.960;-0.698;2023-11-19T01:02:09;6.13;;;4.18;;
46717;SDS011;32448;44.960;-0.698;2023-11-19T01:04:36;7.35;;;4.20;;
46717;SDS011;32448;44.960;-0.698;2023-11-19T01:07:04;6.88;;;4.05;;
46717;SDS011;32448;44.960;-0.698;2023-11-19T01:09:32;12.82;;;4.25;;
46717;SDS011;32448;44.960;-0.698;2023-11-19T01:12:02;10.60;;;3.90;;
46717;SDS011;32448;44.960;-0.698;2023-11-19T01:14:29;11.77;;;4.20;;
46717;SDS011;32448;44.960;-0.698;2023-11-19T01:16:57;6.63;;;4.25;;
46717;SDS011;32448;44.960;-0.698;2023-11-19T01:19:24;8.02;;;4.20;;
46717;SDS011;32448;44.960;-0.698;2023-11-19T01:21:51;7.70;;;4.70;;
46717;SDS011;32448;44.960;-0.698;2023-11-19T01:24:18;8.95;;;4.63;;
46717;SDS011;32448;44.960;-0.698;2023-11-19T01:26:45;9.27;;;4.43;;
46717;SDS011;32448;44.960;-0.698;2023-11-19T01:29:13;8.27;;;4.45;;
46717;SDS011;32448;44.960;-0.698;2023-11-19T01:31:45;10.63;;;5.15;;
46717;SDS011;32448;44.960;-0.698;2023-11-19T01:34:13;13.17;;;5.70;;
46717;SDS011;32448;44.960;-0.698;2023-11-19T01:36:40;13.50;;;7.35;;
46717;SDS011;32448;44.960;-0.698;2023-11-19T01:39:07;12.77;;;5.45;;
46717;SDS011;32448;44.960;-0.698;2023-11-19T01:41:35;11.73;;;6.00;;
46717;SDS011;32448;44.960;-0.698;2023-11-19T01:44:02;11.45;;;5.95;;
46717;SDS011;32448;44.960;-0.698;2023-11-19T01:46:30;10.60;;;5.15;;
46717;SDS011;32448;44.960;-0.698;2023-11-19T01:49:00;12.10;;;5.13;;
46717;SDS011;32448;44.960;-0.698;2023-11-19T01:51:27;9.23;;;5.55;;
46717;SDS011;32448;44.960;-0.698;2023-11-19T01:53:55;13.07;;;6.30;;
46717;SDS011;32448;44.960;-0.698;2023-11-19T01:56:24;10.07;;;5.47;;
46717;SDS011;32448;44.960;-0.698;2023-11-19T01:58:54;10.02;;;5.30;;
46717;SDS011;32448;44.960;-0.698;2023-11-19T02:01:22;8.82;;;5.35;;
46717;SDS011;32448;44.960;-0.698;2023-11-19T02:03:50;9.27;;;5.40;;
46717;SDS011;32448;44.960;-0.698;2023-11-19T02:06:18;10.98;;;5.63;;
46717;SDS011;32448;44.960;-0.698;2023-11-19T02:08:45;10.63;;;5.72;;
46717;SDS011;32448;44.960;-0.698;2023-11-19T02:11:12;11.45;;;5.45;;
46717;SDS011;32448;44.960;-0.698;2023-11-19T02:13:40;7.95;;;4.70;;
46717;SDS011;32448;44.960;-0.698;2023-11-19T02:16:08;9.82;;;5.65;;
46717;SDS011;32448;44.960;-0.698;2023-11-19T02:18:36;7.68;;;5.70;;
46717;SDS011;32448;44.960;-0.698;2023-11-19T02:21:03;8.32;;;5.22;;
46717;SDS011;32448;44.960;-0.698;2023-11-19T02:23:31;14.00;;;5.72;;
46717;SDS011;32448;44.960;-0.698;2023-11-19T02:28:50;10.32;;;5.28;;
46717;SDS011;32448;44.960;-0.698;2023-11-19T02:31:18;12.52;;;5.68;;
46717;SDS011;32448;44.960;-0.698;2023-11-19T02:33:45;10.95;;;5.65;;
46717;SDS011;32448;44.960;-0.698;2023-11-19T02:36:12;8.40;;;5.45;;
46717;SDS011;32448;44.960;-0.698;2023-11-19T02:38:39;8.55;;;5.35;;
46717;SDS011;32448;44.960;-0.698;2023-11-19T02:41:06;8.63;;;5.60;;
46717;SDS011;32448;44.960;-0.698;2023-11-19T02:43:34;9.50;;;6.03;;
46717;SDS011;32448;44.960;-0.698;2023-11-19T02:46:05;11.45;;;6.47;;
46717;SDS011;32448;44.960;-0.698;2023-11-19T02:48:38;8.38;;;5.68;;
46717;SDS011;32448;44.960;-0.698;2023-11-19T02:51:05;9.50;;;5.85;;
46717;SDS011;32448;44.960;-0.698;2023-11-19T02:53:36;11.93;;;6.00;;
46717;SDS011;32448;44.960;-0.698;2023-11-19T02:56:05;9.35;;;5.55;;
46717;SDS011;32448;44.960;-0.698;2023-11-19T02:58:52;15.18;;;6.45;;
46717;SDS011;32448;44.960;-0.698;2023-11-19T03:01:22;13.13;;;6.20;;
46717;SDS011;32448;44.960;-0.698;2023-11-19T03:03:57;11.45;;;5.75;;
46717;SDS011;32448;44.960;-0.698;2023-11-19T03:06:25;10.20;;;5.70;;
46717;SDS011;32448;44.960;-0.698;2023-11-19T03:08:54;12.15;;;5.95;;
46717;SDS011;32448;44.960;-0.698;2023-11-19T03:11:22;9.85;;;5.80;;
46717;SDS011;32448;44.960;-0.698;2023-11-19T03:13:48;9.90;;;6.47;;
46717;SDS011;32448;44.960;-0.698;2023-11-19T03:16:15;8.32;;;5.50;;
46717;SDS011;32448;44.960;-0.698;2023-11-19T03:18:43;14.05;;;7.07;;
46717;SDS011;32448;44.960;-0.698;2023-11-19T03:21:11;10.57;;;6.85;;
46717;SDS011;32448;44.960;-0.698;2023-11-19T03:23:38;14.82;;;8.32;;
46717;SDS011;32448;44.960;-0.698;2023-11-19T03:26:06;11.90;;;6.80;;
46717;SDS011;32448;44.960;-0.698;2023-11-19T03:28:35;12.80;;;7.15;;
46717;SDS011;32448;44.960;-0.698;2023-11-19T03:31:04;13.30;;;6.55;;
46717;SDS011;32448;44.960;-0.698;2023-11-19T03:33:35;10.40;;;6.07;;
46717;SDS011;32448;44.960;-0.698;2023-11-19T03:36:01;11.60;;;6.15;;
46717;SDS011;32448;44.960;-0.698;2023-11-19T03:38:28;13.55;;;5.90;;
46717;SDS011;32448;44.960;-0.698;2023-11-19T03:40:55;11.52;;;6.30;;
46717;SDS011;32448;44.960;-0.698;2023-11-19T03:43:22;10.43;;;6.90;;
46717;SDS011;32448;44.960;-0.698;2023-11-19T03:45:49;17.10;;;10.48;;
46717;SDS011;32448;44.960;-0.698;2023-11-19T03:48:15;42.17;;;24.58;;
46717;SDS011;32448;44.960;-0.698;2023-11-19T03:50:43;33.72;;;22.05;;
46717;SDS011;32448;44.960;-0.698;2023-11-19T03:53:11;18.55;;;11.35;;
46717;SDS011;32448;44.960;-0.698;2023-11-19T03:55:38;16.15;;;9.32;;
46717;SDS011;32448;44.960;-0.698;2023-11-19T03:58:05;13.38;;;7.22;;
46717;SDS011;32448;44.960;-0.698;2023-11-19T04:00:32;12.57;;;6.53;;
46717;SDS011;32448;44.960;-0.698;2023-11-19T04:02:59;13.02;;;6.97;;
46717;SDS011;32448;44.960;-0.698;2023-11-19T04:05:26;15.00;;;6.93;;
46717;SDS011;32448;44.960;-0.698;2023-11-19T04:07:53;17.35;;;7.18;;
46717;SDS011;32448;44.960;-0.698;2023-11-19T04:10:19;14.15;;;6.93;;
46717;SDS011;32448;44.960;-0.698;2023-11-19T04:12:46;17.80;;;8.25;;
46717;SDS011;32448;44.960;-0.698;2023-11-19T04:15:14;14.55;;;8.43;;
46717;SDS011;32448;44.960;-0.698;2023-11-19T04:17:41;13.32;;;8.45;;
46717;SDS011;32448;44.960;-0.698;2023-11-19T04:20:07;13.93;;;6.80;;
46717;SDS011;32448;44.960;-0.698;2023-11-19T04:22:39;11.65;;;6.80;;
46717;SDS011;32448;44.960;-0.698;2023-11-19T04:25:06;16.40;;;9.10;;
46717;SDS011;32448;44.960;-0.698;2023-11-19T04:27:33;19.25;;;11.45;;
46717;SDS011;32448;44.960;-0.698;2023-11-19T04:30:00;20.50;;;14.07;;
46717;SDS011;32448;44.960;-0.698;2023-11-19T04:32:28;36.95;;;22.90;;
46717;SDS011;32448;44.960;-0.698;2023-11-19T04:34:55;25.20;;;15.60;;
46717;SDS011;32448;44.960;-0.698;2023-11-19T04:37:22;20.38;;;10.02;;
46717;SDS011;32448;44.960;-0.698;2023-11-19T04:39:49;15.27;;;8.90;;
46717;SDS011;32448;44.960;-0.698;2023-11-19T04:42:16;13.70;;;8.50;;
46717;SDS011;32448;44.960;-0.698;2023-11-19T04:44:43;17.98;;;7.20;;
46717;SDS011;32448;44.960;-0.698;2023-11-19T04:47:11;10.52;;;6.18;;
46717;SDS011;32448;44.960;-0.698;2023-11-19T04:49:41;13.57;;;6.03;;
46717;SDS011;32448;44.960;-0.698;2023-11-19T04:52:10;18.30;;;6.13;;
46717;SDS011;32448;44.960;-0.698;2023-11-19T04:54:42;12.40;;;6.28;;
46717;SDS011;32448;44.960;-0.698;2023-11-19T04:57:12;8.32;;;5.00;;
46717;SDS011;32448;44.960;-0.698;2023-11-19T04:59:39;11.07;;;5.72;;
46717;SDS011;32448;44.960;-0.698;2023-11-19T05:02:06;15.95;;;8.80;;
46717;SDS011;32448;44.960;-0.698;2023-11-19T05:04:33;33.38;;;17.35;;
46717;SDS011;32448;44.960;-0.698;2023-11-19T05:07:00;31.90;;;12.32;;
46717;SDS011;32448;44.960;-0.698;2023-11-19T05:09:27;16.60;;;9.65;;
46717;SDS011;32448;44.960;-0.698;2023-11-19T05:11:54;14.77;;;9.15;;
46717;SDS011;32448;44.960;-0.698;2023-11-19T05:14:21;15.48;;;8.25;;
46717;SDS011;32448;44.960;-0.698;2023-11-19T05:16:48;15.75;;;8.00;;
46717;SDS011;32448;44.960;-0.698;2023-11-19T05:19:15;14.90;;;6.30;;
46717;SDS011;32448;44.960;-0.698;2023-11-19T05:21:42;10.77;;;5.68;;
46717;SDS011;32448;44.960;-0.698;2023-11-19T05:24:10;17.83;;;6.90;;
46717;SDS011;32448;44.960;-0.698;2023-11-19T05:26:38;12.50;;;5.85;;
46717;SDS011;32448;44.960;-0.698;2023-11-19T05:29:05;11.02;;;5.40;;
46717;SDS011;32448;44.960;-0.698;2023-11-19T05:31:32;10.57;;;5.72;;
46717;SDS011;32448;44.960;-0.698;2023-11-19T05:34:03;11.50;;;5.75;;
46717;SDS011;32448;44.960;-0.698;2023-11-19T05:36:30;10.93;;;4.97;;
46717;SDS011;32448;44.960;-0.698;2023-11-19T05:38:57;9.25;;;5.32;;
46717;SDS011;32448;44.960;-0.698;2023-11-19T05:41:24;10.38;;;5.05;;
46717;SDS011;32448;44.960;-0.698;2023-11-19T05:43:50;10.73;;;5.13;;
46717;SDS011;32448;44.960;-0.698;2023-11-19T05:46:18;13.48;;;5.68;;
46717;SDS011;32448;44.960;-0.698;2023-11-19T05:48:46;10.98;;;5.32;;
46717;SDS011;32448;44.960;-0.698;2023-11-19T05:51:14;12.30;;;4.72;;
46717;SDS011;32448;44.960;-0.698;2023-11-19T05:53:42;13.23;;;6.20;;
46717;SDS011;32448;44.960;-0.698;2023-11-19T05:56:09;10.73;;;5.38;;
46717;SDS011;32448;44.960;-0.698;2023-11-19T05:58:36;12.38;;;4.88;;
46717;SDS011;32448;44.960;-0.698;2023-11-19T06:04:00;10.07;;;5.30;;
46717;SDS011;32448;44.960;-0.698;2023-11-19T06:06:28;11.93;;;5.80;;
46717;SDS011;32448;44.960;-0.698;2023-11-19T06:08:55;19.33;;;5.13;;
46717;SDS011;32448;44.960;-0.698;2023-11-19T06:11:22;8.82;;;5.25;;
46717;SDS011;32448;44.960;-0.698;2023-11-19T06:13:49;14.82;;;5.55;;
46717;SDS011;32448;44.960;-0.698;2023-11-19T06:16:17;13.77;;;5.60;;
46717;SDS011;32448;44.960;-0.698;2023-11-19T06:18:45;15.68;;;5.78;;
46717;SDS011;32448;44.960;-0.698;2023-11-19T06:21:12;12.00;;;6.20;;
46717;SDS011;32448;44.960;-0.698;2023-11-19T06:23:39;9.38;;;5.43;;
46717;SDS011;32448;44.960;-0.698;2023-11-19T06:26:06;11.13;;;4.93;;
46717;SDS011;32448;44.960;-0.698;2023-11-19T06:28:32;11.05;;;5.32;;
46717;SDS011;32448;44.960;-0.698;2023-11-19T06:30:59;16.85;;;5.97;;
46717;SDS011;32448;44.960;-0.698;2023-11-19T06:33:26;13.52;;;5.22;;
46717;SDS011;32448;44.960;-0.698;2023-11-19T06:35:53;13.57;;;5.97;;
46717;SDS011;32448;44.960;-0.698;2023-11-19T06:38:21;15.63;;;5.40;;
46717;SDS011;32448;44.960;-0.698;2023-11-19T06:40:47;11.07;;;5.03;;
46717;SDS011;32448;44.960;-0.698;2023-11-19T06:43:20;11.05;;;6.10;;
46717;SDS011;32448;44.960;-0.698;2023-11-19T06:45:48;42.75;;;16.83;;
46717;SDS011;32448;44.960;-0.698;2023-11-19T06:48:15;53.30;;;22.23;;
46717;SDS011;32448;44.960;-0.698;2023-11-19T06:50:42;63.30;;;28.38;;
46717;SDS011;32448;44.960;-0.698;2023-11-19T06:53:08;64.18;;;29.23;;
46717;SDS011;32448;44.960;-0.698;2023-11-19T06:55:37;62.70;;;27.88;;
46717;SDS011;32448;44.960;-0.698;2023-11-19T06:58:05;70.93;;;28.63;;
46717;SDS011;32448;44.960;-0.698;2023-11-19T07:00:33;75.28;;;30.05;;
46717;SDS011;32448;44.960;-0.698;2023-11-19T07:03:00;80.47;;;31.40;;
46717;SDS011;32448;44.960;-0.698;2023-11-19T07:05:27;57.28;;;22.95;;
46717;SDS011;32448;44.960;-0.698;2023-11-19T07:07:54;93.45;;;30.73;;
46717;SDS011;32448;44.960;-0.698;2023-11-19T07:10:22;94.97;;;32.90;;
46717;SDS011;32448;44.960;-0.698;2023-11-19T07:12:49;89.30;;;31.23;;
46717;SDS011;32448;44.960;-0.698;2023-11-19T07:15:17;48.60;;;20.75;;
46717;SDS011;32448;44.960;-0.698;2023-11-19T07:17:44;22.90;;;9.88;;
46717;SDS011;32448;44.960;-0.698;2023-11-19T07:20:11;17.48;;;7.78;;
46717;SDS011;32448;44.960;-0.698;2023-11-19T07:22:45;19.55;;;7.93;;
46717;SDS011;32448;44.960;-0.698;2023-11-19T07:25:15;26.95;;;13.27;;
46717;SDS011;32448;44.960;-0.698;2023-11-19T07:27:42;27.40;;;14.15;;
46717;SDS011;32448;44.960;-0.698;2023-11-19T07:30:09;32.85;;;16.58;;
46717;SDS011;32448;44.960;-0.698;2023-11-19T07:32:36;43.50;;;21.88;;
46717;SDS011;32448;44.960;-0.698;2023-11-19T07:35:05;51.50;;;28.23;;
46717;SDS011;32448;44.960;-0.698;2023-11-19T07:37:33;64.20;;;31.33;;
46717;SDS011;32448;44.960;-0.698;2023-11-19T07:40:00;68.97;;;32.97;;
46717;SDS011;32448;44.960;-0.698;2023-11-19T07:42:26;56.47;;;29.15;;
46717;SDS011;32448;44.960;-0.698;2023-11-19T07:44:53;60.10;;;30.20;;
46717;SDS011;32448;44.960;-0.698;2023-11-19T07:47:22;76.35;;;37.05;;
46717;SDS011;32448;44.960;-0.698;2023-11-19T07:49:50;53.47;;;27.20;;
46717;SDS011;32448;44.960;-0.698;2023-11-19T07:52:17;36.03;;;17.02;;
46717;SDS011;32448;44.960;-0.698;2023-11-19T07:54:47;36.05;;;16.52;;
46717;SDS011;32448;44.960;-0.698;2023-11-19T07:57:15;45.00;;;21.95;;
46717;SDS011;32448;44.960;-0.698;2023-11-19T07:59:42;46.53;;;22.80;;
46717;SDS011;32448;44.960;-0.698;2023-11-19T08:02:08;40.17;;;20.25;;
46717;SDS011;32448;44.960;-0.698;2023-11-19T08:04:35;43.22;;;22.05;;
46717;SDS011;32448;44.960;-0.698;2023-11-19T08:07:03;45.38;;;18.67;;
46717;SDS011;32448;44.960;-0.698;2023-11-19T08:09:30;49.97;;;24.40;;
46717;SDS011;32448;44.960;-0.698;2023-11-19T08:11:59;58.08;;;26.20;;
46717;SDS011;32448;44.960;-0.698;2023-11-19T08:14:26;53.42;;;26.08;;
46717;SDS011;32448;44.960;-0.698;2023-11-19T08:16:53;63.65;;;26.55;;
46717;SDS011;32448;44.960;-0.698;2023-11-19T08:19:20;103.47;;;44.58;;
46717;SDS011;32448;44.960;-0.698;2023-11-19T08:21:47;120.47;;;48.67;;
46717;SDS011;32448;44.960;-0.698;2023-11-19T08:24:16;105.30;;;43.60;;
46717;SDS011;32448;44.960;-0.698;2023-11-19T08:26:46;83.93;;;34.35;;
46717;SDS011;32448;44.960;-0.698;2023-11-19T08:31:57;95.78;;;37.65;;
46717;SDS011;32448;44.960;-0.698;2023-11-19T08:34:28;96.00;;;42.13;;
46717;SDS011;32448;44.960;-0.698;2023-11-19T08:36:59;71.07;;;31.58;;
46717;SDS011;32448;44.960;-0.698;2023-11-19T08:39:26;67.45;;;28.58;;
46717;SDS011;32448;44.960;-0.698;2023-11-19T08:41:59;65.15;;;29.50;;
46717;SDS011;32448;44.960;-0.698;2023-11-19T08:44:26;43.15;;;22.30;;
46717;SDS011;32448;44.960;-0.698;2023-11-19T08:46:53;38.22;;;17.70;;
46717;SDS011;32448;44.960;-0.698;2023-11-19T08:49:20;37.22;;;20.48;;
46717;SDS011;32448;44.960;-0.698;2023-11-19T08:51:46;41.13;;;21.63;;
46717;SDS011;32448;44.960;-0.698;2023-11-19T08:54:13;39.95;;;21.73;;
46717;SDS011;32448;44.960;-0.698;2023-11-19T08:56:40;32.00;;;17.42;;
46717;SDS011;32448;44.960;-0.698;2023-11-19T08:59:07;21.55;;;12.52;;
46717;SDS011;32448;44.960;-0.698;2023-11-19T09:01:35;22.10;;;12.45;;
46717;SDS011;32448;44.960;-0.698;2023-11-19T09:04:02;17.88;;;7.47;;
46717;SDS011;32448;44.960;-0.698;2023-11-19T09:06:31;15.57;;;7.75;;
46717;SDS011;32448;44.960;-0.698;2023-11-19T09:08:58;17.98;;;9.18;;
46717;SDS011;32448;44.960;-0.698;2023-11-19T09:11:29;13.20;;;7.65;;
46717;SDS011;32448;44.960;-0.698;2023-11-19T09:13:56;12.68;;;7.47;;
46717;SDS011;32448;44.960;-0.698;2023-11-19T09:16:23;9.60;;;6.25;;
46717;SDS011;32448;44.960;-0.698;2023-11-19T09:18:50;14.10;;;8.40;;
46717;SDS011;32448;44.960;-0.698;2023-11-19T09:21:17;16.42;;;7.45;;
46717;SDS011;32448;44.960;-0.698;2023-11-19T09:23:44;13.43;;;6.95;;
46717;SDS011;32448;44.960;-0.698;2023-11-19T09:26:11;11.85;;;7.20;;
46717;SDS011;32448;44.960;-0.698;2023-11-19T09:28:38;9.50;;;5.15;;
46717;SDS011;32448;44.960;-0.698;2023-11-19T09:31:14;9.90;;;5.90;;
46717;SDS011;32448;44.960;-0.698;2023-11-19T09:33:42;9.75;;;6.18;;
46717;SDS011;32448;44.960;-0.698;2023-11-19T09:36:09;6.47;;;4.18;;
46717;SDS011;32448;44.960;-0.698;2023-11-19T09:38:40;5.15;;;3.40;;
46717;SDS011;32448;44.960;-0.698;2023-11-19T09:41:07;9.00;;;4.45;;
46717;SDS011;32448;44.960;-0.698;2023-11-19T09:43:35;7.95;;;4.72;;
46717;SDS011;32448;44.960;-0.698;2023-11-19T09:46:05;5.95;;;3.60;;
46717;SDS011;32448;44.960;-0.698;2023-11-19T09:48:33;5.45;;;3.30;;
46717;SDS011;32448;44.960;-0.698;2023-11-19T09:51:02;4.65;;;3.45;;
46717;SDS011;32448;44.960;-0.698;2023-11-19T09:53:31;4.40;;;2.80;;
46717;SDS011;32448;44.960;-0.698;2023-11-19T09:56:01;4.93;;;2.40;;
46717;SDS011;32448;44.960;-0.698;2023-11-19T09:58:29;5.38;;;2.90;;
46717;SDS011;32448;44.960;-0.698;2023-11-19T10:00:59;8.10;;;3.60;;
46717;SDS011;32448;44.960;-0.698;2023-11-19T10:03:47;6.00;;;3.22;;
46717;SDS011;32448;44.960;-0.698;2023-11-19T10:06:15;3.90;;;2.92;;
46717;SDS011;32448;44.960;-0.698;2023-11-19T10:08:42;5.18;;;2.67;;
46717;SDS011;32448;44.960;-0.698;2023-11-19T10:11:10;4.90;;;2.80;;
46717;SDS011;32448;44.960;-0.698;2023-11-19T10:13:40;6.35;;;2.63;;
46717;SDS011;32448;44.960;-0.698;2023-11-19T10:16:12;5.75;;;2.53;;
46717;SDS011;32448;44.960;-0.698;2023-11-19T10:18:44;5.65;;;2.88;;
46717;SDS011;32448;44.960;-0.698;2023-11-19T10:21:19;18.75;;;5.63;;
46717;SDS011;32448;44.960;-0.698;2023-11-19T10:23:53;47.30;;;12.82;;
46717;SDS011;32448;44.960;-0.698;2023-11-19T10:26:23;357.42;;;100.07;;
46717;SDS011;32448;44.960;-0.698;2023-11-19T10:28:50;300.92;;;90.05;;
46717;SDS011;32448;44.960;-0.698;2023-11-19T10:31:17;109.32;;;35.42;;
46717;SDS011;32448;44.960;-0.698;2023-11-19T10:33:45;25.52;;;9.20;;
46717;SDS011;32448;44.960;-0.698;2023-11-19T10:36:14;69.15;;;26.42;;
46717;SDS011;32448;44.960;-0.698;2023-11-19T10:38:41;97.75;;;38.58;;
46717;SDS011;32448;44.960;-0.698;2023-11-19T10:41:28;27.05;;;11.00;;
46717;SDS011;32448;44.960;-0.698;2023-11-19T10:43:57;41.75;;;15.90;;
46717;SDS011;32448;44.960;-0.698;2023-11-19T10:46:40;30.15;;;14.00;;
46717;SDS011;32448;44.960;-0.698;2023-11-19T10:49:08;83.82;;;35.13;;
46717;SDS011;32448;44.960;-0.698;2023-11-19T10:51:35;38.40;;;17.25;;
46717;SDS011;32448;44.960;-0.698;2023-11-19T10:54:03;17.10;;;8.13;;
46717;SDS011;32448;44.960;-0.698;2023-11-19T10:56:34;5.55;;;3.28;;
46717;SDS011;32448;44.960;-0.698;2023-11-19T10:59:02;21.58;;;11.90;;
46717;SDS011;32448;44.960;-0.698;2023-11-19T11:01:49;37.35;;;26.55;;
46717;SDS011;32448;44.960;-0.698;2023-11-19T11:04:22;32.85;;;24.77;;
46717;SDS011;32448;44.960;-0.698;2023-11-19T11:06:51;25.52;;;15.40;;
46717;SDS011;32448;44.960;-0.698;2023-11-19T11:09:18;18.33;;;11.38;;
46717;SDS011;32448;44.960;-0.698;2023-11-19T11:11:48;11.32;;;8.07;;
46717;SDS011;32448;44.960;-0.698;2023-11-19T11:14:16;17.13;;;9.85;;
46717;SDS011;32448;44.960;-0.698;2023-11-19T11:16:47;13.82;;;9.93;;
46717;SDS011;32448;44.960;-0.698;2023-11-19T11:19:18;11.13;;;8.18;;
46717;SDS011;32448;44.960;-0.698;2023-11-19T11:21:46;17.98;;;11.80;;
46717;SDS011;32448;44.960;-0.698;2023-11-19T11:30:17;42.90;;;26.48;;
46717;SDS011;32448;44.960;-0.698;2023-11-19T11:35:49;15.43;;;8.83;;
46717;SDS011;32448;44.960;-0.698;2023-11-19T11:38:36;12.65;;;7.25;;
46717;SDS011;32448;44.960;-0.698;2023-11-19T11:43:54;8.48;;;3.40;;
46717;SDS011;32448;44.960;-0.698;2023-11-19T11:49:08;7.65;;;3.40;;
46717;SDS011;32448;44.960;-0.698;2023-11-19T12:02:09;8.38;;;4.30;;
46717;SDS011;32448;44.960;-0.698;2023-11-19T12:04:37;12.77;;;5.65;;
46717;SDS011;32448;44.960;-0.698;2023-11-19T12:07:06;10.82;;;5.40;;
46717;SDS011;32448;44.960;-0.698;2023-11-19T12:09:39;13.85;;;5.93;;
46717;SDS011;32448;44.960;-0.698;2023-11-19T12:17:46;12.50;;;3.88;;
46717;SDS011;32448;44.960;-0.698;2023-11-19T12:20:18;11.77;;;6.25;;
46717;SDS011;32448;44.960;-0.698;2023-11-19T12:22:50;8.57;;;4.78;;
46717;SDS011;32448;44.960;-0.698;2023-11-19T12:25:18;9.05;;;3.85;;
46717;SDS011;32448;44.960;-0.698;2023-11-19T12:27:50;11.25;;;6.75;;
46717;SDS011;32448;44.960;-0.698;2023-11-19T12:30:21;12.60;;;6.18;;
46717;SDS011;32448;44.960;-0.698;2023-11-19T12:32:49;7.60;;;4.20;;
46717;SDS011;32448;44.960;-0.698;2023-11-19T12:35:16;10.15;;;3.60;;
46717;SDS011;32448;44.960;-0.698;2023-11-19T12:37:43;10.15;;;3.00;;
46717;SDS011;32448;44.960;-0.698;2023-11-19T12:42:39;6.10;;;2.00;;
46717;SDS011;32448;44.960;-0.698;2023-11-19T12:45:06;9.60;;;3.10;;
46717;SDS011;32448;44.960;-0.698;2023-11-19T12:47:34;11.45;;;2.90;;
46717;SDS011;32448;44.960;-0.698;2023-11-19T12:50:01;9.40;;;3.78;;
46717;SDS011;32448;44.960;-0.698;2023-11-19T12:52:28;9.00;;;2.95;;
46717;SDS011;32448;44.960;-0.698;2023-11-19T12:54:55;9.25;;;4.97;;
46717;SDS011;32448;44.960;-0.698;2023-11-19T12:57:22;12.25;;;5.22;;
46717;SDS011;32448;44.960;-0.698;2023-11-19T13:00:05;7.57;;;2.88;;
46717;SDS011;32448;44.960;-0.698;2023-11-19T13:02:47;6.90;;;2.47;;
46717;SDS011;32448;44.960;-0.698;2023-11-19T13:07:48;7.10;;;1.98;;
46717;SDS011;32448;44.960;-0.698;2023-11-19T13:10:15;7.85;;;2.03;;
46717;SDS011;32448;44.960;-0.698;2023-11-19T13:15:32;7.60;;;1.95;;
46717;SDS011;32448;44.960;-0.698;2023-11-19T13:18:01;5.35;;;1.80;;
46717;SDS011;32448;44.960;-0.698;2023-11-19T13:20:29;6.35;;;1.75;;
46717;SDS011;32448;44.960;-0.698;2023-11-19T13:22:56;7.15;;;1.90;;
46717;SDS011;32448;44.960;-0.698;2023-11-19T13:25:31;4.40;;;1.70;;
46717;SDS011;32448;44.960;-0.698;2023-11-19T13:27:58;7.43;;;2.08;;
46717;SDS011;32448;44.960;-0.698;2023-11-19T13:30:26;5.15;;;1.88;;
46717;SDS011;32448;44.960;-0.698;2023-11-19T13:32:53;7.97;;;1.92;;
46717;SDS011;32448;44.960;-0.698;2023-11-19T13:35:23;8.25;;;1.60;;
46717;SDS011;32448;44.960;-0.698;2023-11-19T13:37:50;7.65;;;1.67;;
46717;SDS011;32448;44.960;-0.698;2023-11-19T13:40:18;7.97;;;2.20;;
46717;SDS011;32448;44.960;-0.698;2023-11-19T13:42:46;5.97;;;2.28;;
46717;SDS011;32448;44.960;-0.698;2023-11-19T13:45:13;10.63;;;2.50;;
46717;SDS011;32448;44.960;-0.698;2023-11-19T13:47:43;8.18;;;2.80;;
46717;SDS011;32448;44.960;-0.698;2023-11-19T13:50:12;7.95;;;3.20;;
46717;SDS011;32448;44.960;-0.698;2023-11-19T13:52:42;9.40;;;3.63;;
46717;SDS011;32448;44.960;-0.698;2023-11-19T13:55:11;13.05;;;4.85;;
46717;SDS011;32448;44.960;-0.698;2023-11-19T13:57:39;13.70;;;6.40;;
46717;SDS011;32448;44.960;-0.698;2023-11-19T14:00:07;9.52;;;3.38;;
46717;SDS011;32448;44.960;-0.698;2023-11-19T14:02:39;15.73;;;6.18;;
46717;SDS011;32448;44.960;-0.698;2023-11-19T14:05:07;22.13;;;9.75;;
46717;SDS011;32448;44.960;-0.698;2023-11-19T14:07:35;12.77;;;6.10;;
46717;SDS011;32448;44.960;-0.698;2023-11-19T14:10:01;15.57;;;7.45;;
46717;SDS011;32448;44.960;-0.698;2023-11-19T14:12:29;12.27;;;6.10;;
46717;SDS011;32448;44.960;-0.698;2023-11-19T14:14:56;16.50;;;8.82;;
46717;SDS011;32448;44.960;-0.698;2023-11-19T14:17:22;17.35;;;8.20;;
46717;SDS011;32448;44.960;-0.698;2023-11-19T14:19:51;13.63;;;5.40;;
46717;SDS011;32448;44.960;-0.698;2023-11-19T14:22:18;14.68;;;6.88;;
46717;SDS011;32448;44.960;-0.698;2023-11-19T14:24:45;15.35;;;7.38;;
46717;SDS011;32448;44.960;-0.698;2023-11-19T14:27:12;21.92;;;7.50;;
46717;SDS011;32448;44.960;-0.698;2023-11-19T14:29:39;10.38;;;6.25;;
46717;SDS011;32448;44.960;-0.698;2023-11-19T14:32:06;10.65;;;6.22;;
46717;SDS011;32448;44.960;-0.698;2023-11-19T14:34:33;10.82;;;5.63;;
46717;SDS011;32448;44.960;-0.698;2023-11-19T14:37:00;11.00;;;5.40;;
46717;SDS011;32448;44.960;-0.698;2023-11-19T14:39:27;15.57;;;5.63;;
46717;SDS011;32448;44.960;-0.698;2023-11-19T14:41:55;13.18;;;6.97;;
46717;SDS011;32448;44.960;-0.698;2023-11-19T14:44:24;11.38;;;4.90;;
46717;SDS011;32448;44.960;-0.698;2023-11-19T14:46:51;12.55;;;5.75;;
46717;SDS011;32448;44.960;-0.698;2023-11-19T14:49:18;11.30;;;4.97;;
46717;SDS011;32448;44.960;-0.698;2023-11-19T14:51:45;7.18;;;3.80;;
46717;SDS011;32448;44.960;-0.698;2023-11-19T14:54:14;9.75;;;3.67;;
46717;SDS011;32448;44.960;-0.698;2023-11-19T14:56:42;8.02;;;4.40;;
46717;SDS011;32448;44.960;-0.698;2023-11-19T14:59:09;10.15;;;3.88;;
46717;SDS011;32448;44.960;-0.698;2023-11-19T15:01:36;10.38;;;4.80;;
46717;SDS011;32448;44.960;-0.698;2023-11-19T15:04:03;14.38;;;6.18;;
46717;SDS011;32448;44.960;-0.698;2023-11-19T15:06:32;12.90;;;5.47;;
46717;SDS011;32448;44.960;-0.698;2023-11-19T15:09:00;6.60;;;3.63;;
46717;SDS011;32448;44.960;-0.698;2023-11-19T15:11:27;8.68;;;3.65;;
46717;SDS011;32448;44.960;-0.698;2023-11-19T15:13:54;8.38;;;4.10;;
46717;SDS011;32448;44.960;-0.698;2023-11-19T15:16:21;9.50;;;3.28;;